sensor_id;sensor_type;location;lat;lon;timestamp;P1;durP1;ratioP1;P2;durP2;ratioP2
67712;SDS011;67640;55.784;49.138;2023-05-31T00:01:56;12.93;;;4.37;;
67712;SDS011;67640;55.784;49.138;2023-05-31T00:07:15;13.20;;;4.42;;
67712;SDS011;67640;55.784;49.138;2023-05-31T00:12:20;14.73;;;5.20;;
67712;SDS011;67640;55.784;49.138;2023-05-31T00:17:39;15.83;;;5.00;;
67712;SDS011;67640;55.784;49.138;2023-05-31T00:22:45;12.50;;;4.75;;
67712;SDS011;67640;55.784;49.138;2023-05-31T00:28:04;12.85;;;4.80;;
67712;SDS011;67640;55.784;49.138;2023-05-31T00:38:48;14.63;;;4.70;;
67712;SDS011;67640;55.784;49.138;2023-05-31T00:43:53;19.57;;;4.92;;
67712;SDS011;67640;55.784;49.138;2023-05-31T00:49:13;13.95;;;4.87;;
67712;SDS011;67640;55.784;49.138;2023-05-31T00:54:32;12.57;;;4.60;;
67712;SDS011;67640;55.784;49.138;2023-05-31T00:59:37;11.63;;;4.78;;
67712;SDS011;67640;55.784;49.138;2023-05-31T01:05:04;14.25;;;4.87;;
67712;SDS011;67640;55.784;49.138;2023-05-31T01:10:10;14.90;;;5.20;;
67712;SDS011;67640;55.784;49.138;2023-05-31T01:15:31;12.80;;;4.63;;
67712;SDS011;67640;55.784;49.138;2023-05-31T01:20:38;26.52;;;7.42;;
67712;SDS011;67640;55.784;49.138;2023-05-31T01:31:06;18.13;;;4.63;;
67712;SDS011;67640;55.784;49.138;2023-05-31T01:36:11;16.48;;;4.90;;
67712;SDS011;67640;55.784;49.138;2023-05-31T01:41:17;15.38;;;4.30;;
67712;SDS011;67640;55.784;49.138;2023-05-31T01:46:40;14.93;;;4.67;;
67712;SDS011;67640;55.784;49.138;2023-05-31T01:51:45;22.40;;;5.12;;
67712;SDS011;67640;55.784;49.138;2023-05-31T01:57:05;13.22;;;4.37;;
67712;SDS011;67640;55.784;49.138;2023-05-31T02:02:11;15.20;;;4.40;;
67712;SDS011;67640;55.784;49.138;2023-05-31T02:07:30;20.40;;;4.72;;
67712;SDS011;67640;55.784;49.138;2023-05-31T02:12:49;20.37;;;5.10;;
67712;SDS011;67640;55.784;49.138;2023-05-31T02:17:55;19.12;;;4.37;;
67712;SDS011;67640;55.784;49.138;2023-05-31T02:23:21;23.40;;;5.15;;
67712;SDS011;67640;55.784;49.138;2023-05-31T02:28:25;25.07;;;4.77;;
67712;SDS011;67640;55.784;49.138;2023-05-31T02:33:33;18.05;;;4.30;;
67712;SDS011;67640;55.784;49.138;2023-05-31T02:38:51;20.95;;;5.03;;
67712;SDS011;67640;55.784;49.138;2023-05-31T02:43:56;16.13;;;4.47;;
67712;SDS011;67640;55.784;49.138;2023-05-31T02:49:15;21.48;;;4.83;;
67712;SDS011;67640;55.784;49.138;2023-05-31T02:54:35;16.52;;;4.87;;
67712;SDS011;67640;55.784;49.138;2023-05-31T02:59:57;20.80;;;4.50;;
67712;SDS011;67640;55.784;49.138;2023-05-31T03:05:15;22.90;;;4.95;;
67712;SDS011;67640;55.784;49.138;2023-05-31T03:10:20;14.63;;;4.17;;
67712;SDS011;67640;55.784;49.138;2023-05-31T03:15:39;14.28;;;4.42;;
67712;SDS011;67640;55.784;49.138;2023-05-31T03:20:45;21.93;;;6.53;;
67712;SDS011;67640;55.784;49.138;2023-05-31T03:25:50;24.70;;;4.55;;
67712;SDS011;67640;55.784;49.138;2023-05-31T03:30:55;18.98;;;4.95;;
67712;SDS011;67640;55.784;49.138;2023-05-31T03:36:01;23.00;;;4.90;;
67712;SDS011;67640;55.784;49.138;2023-05-31T03:41:20;13.25;;;4.55;;
67712;SDS011;67640;55.784;49.138;2023-05-31T03:46:39;22.17;;;5.03;;
67712;SDS011;67640;55.784;49.138;2023-05-31T03:51:45;18.50;;;4.55;;
67712;SDS011;67640;55.784;49.138;2023-05-31T03:56:49;23.83;;;4.95;;
67712;SDS011;67640;55.784;49.138;2023-05-31T04:02:09;18.57;;;4.50;;
67712;SDS011;67640;55.784;49.138;2023-05-31T04:07:28;16.82;;;4.30;;
67712;SDS011;67640;55.784;49.138;2023-05-31T04:12:47;17.60;;;4.10;;
67712;SDS011;67640;55.784;49.138;2023-05-31T04:17:52;21.00;;;4.05;;
67712;SDS011;67640;55.784;49.138;2023-05-31T04:22:58;16.23;;;3.75;;
67712;SDS011;67640;55.784;49.138;2023-05-31T04:28:08;14.33;;;4.13;;
67712;SDS011;67640;55.784;49.138;2023-05-31T04:33:27;19.10;;;4.30;;
67712;SDS011;67640;55.784;49.138;2023-05-31T04:38:46;17.73;;;4.85;;
67712;SDS011;67640;55.784;49.138;2023-05-31T04:49:30;17.65;;;4.60;;
67712;SDS011;67640;55.784;49.138;2023-05-31T04:54:49;21.23;;;4.77;;
67712;SDS011;67640;55.784;49.138;2023-05-31T05:00:08;20.12;;;5.22;;
67712;SDS011;67640;55.784;49.138;2023-05-31T05:05:28;24.35;;;4.37;;
67712;SDS011;67640;55.784;49.138;2023-05-31T05:10:33;24.90;;;4.85;;
67712;SDS011;67640;55.784;49.138;2023-05-31T05:15:39;33.58;;;5.50;;
67712;SDS011;67640;55.784;49.138;2023-05-31T05:21:01;26.63;;;5.03;;
67712;SDS011;67640;55.784;49.138;2023-05-31T05:26:20;23.38;;;5.33;;
67712;SDS011;67640;55.784;49.138;2023-05-31T05:31:25;28.67;;;5.00;;
67712;SDS011;67640;55.784;49.138;2023-05-31T05:36:44;31.30;;;4.90;;
67712;SDS011;67640;55.784;49.138;2023-05-31T05:41:50;27.70;;;4.40;;
67712;SDS011;67640;55.784;49.138;2023-05-31T05:47:09;24.03;;;4.40;;
67712;SDS011;67640;55.784;49.138;2023-05-31T05:52:31;19.57;;;4.20;;
67712;SDS011;67640;55.784;49.138;2023-05-31T05:57:36;22.65;;;4.03;;
67712;SDS011;67640;55.784;49.138;2023-05-31T06:02:42;18.02;;;4.35;;
67712;SDS011;67640;55.784;49.138;2023-05-31T06:07:47;24.15;;;4.55;;
67712;SDS011;67640;55.784;49.138;2023-05-31T06:13:06;15.18;;;3.58;;
67712;SDS011;67640;55.784;49.138;2023-05-31T06:18:25;21.50;;;4.23;;
67712;SDS011;67640;55.784;49.138;2023-05-31T06:23:31;16.85;;;3.80;;
67712;SDS011;67640;55.784;49.138;2023-05-31T06:39:27;19.75;;;3.95;;
67712;SDS011;67640;55.784;49.138;2023-05-31T06:44:33;19.23;;;4.20;;
67712;SDS011;67640;55.784;49.138;2023-05-31T06:49:52;18.47;;;4.80;;
67712;SDS011;67640;55.784;49.138;2023-05-31T06:54:57;17.90;;;4.10;;
67712;SDS011;67640;55.784;49.138;2023-05-31T07:00:16;22.55;;;5.12;;
67712;SDS011;67640;55.784;49.138;2023-05-31T07:05:36;16.75;;;4.60;;
67712;SDS011;67640;55.784;49.138;2023-05-31T07:10:55;30.45;;;5.10;;
67712;SDS011;67640;55.784;49.138;2023-05-31T07:16:14;20.55;;;4.00;;
67712;SDS011;67640;55.784;49.138;2023-05-31T07:21:19;26.03;;;5.30;;
67712;SDS011;67640;55.784;49.138;2023-05-31T07:26:24;35.30;;;5.67;;
67712;SDS011;67640;55.784;49.138;2023-05-31T07:31:43;26.65;;;5.20;;
67712;SDS011;67640;55.784;49.138;2023-05-31T07:37:02;21.30;;;4.60;;
67712;SDS011;67640;55.784;49.138;2023-05-31T07:42:22;24.72;;;3.95;;
67712;SDS011;67640;55.784;49.138;2023-05-31T07:47:28;18.63;;;4.70;;
67712;SDS011;67640;55.784;49.138;2023-05-31T07:52:36;18.95;;;4.22;;
67712;SDS011;67640;55.784;49.138;2023-05-31T07:57:42;24.25;;;5.28;;
67712;SDS011;67640;55.784;49.138;2023-05-31T08:02:49;24.57;;;5.00;;
67712;SDS011;67640;55.784;49.138;2023-05-31T08:08:08;34.88;;;5.33;;
67712;SDS011;67640;55.784;49.138;2023-05-31T08:13:27;24.93;;;5.43;;
67712;SDS011;67640;55.784;49.138;2023-05-31T08:18:32;22.30;;;5.20;;
67712;SDS011;67640;55.784;49.138;2023-05-31T08:23:54;24.37;;;5.85;;
67712;SDS011;67640;55.784;49.138;2023-05-31T08:28:59;17.77;;;4.70;;
67712;SDS011;67640;55.784;49.138;2023-05-31T08:34:18;15.83;;;4.67;;
67712;SDS011;67640;55.784;49.138;2023-05-31T08:39:37;18.62;;;5.00;;
67712;SDS011;67640;55.784;49.138;2023-05-31T08:44:56;17.73;;;4.73;;
67712;SDS011;67640;55.784;49.138;2023-05-31T08:50:15;18.30;;;4.50;;
67712;SDS011;67640;55.784;49.138;2023-05-31T08:55:23;20.40;;;5.08;;
67712;SDS011;67640;55.784;49.138;2023-05-31T09:00:29;23.67;;;5.43;;
67712;SDS011;67640;55.784;49.138;2023-05-31T09:05:40;17.80;;;4.80;;
67712;SDS011;67640;55.784;49.138;2023-05-31T09:16:29;20.40;;;4.70;;
67712;SDS011;67640;55.784;49.138;2023-05-31T09:21:49;20.25;;;4.90;;
67712;SDS011;67640;55.784;49.138;2023-05-31T09:27:15;19.20;;;4.20;;
67712;SDS011;67640;55.784;49.138;2023-05-31T09:32:21;19.20;;;5.72;;
67712;SDS011;67640;55.784;49.138;2023-05-31T09:37:27;21.97;;;5.03;;
67712;SDS011;67640;55.784;49.138;2023-05-31T09:42:32;23.80;;;5.35;;
67712;SDS011;67640;55.784;49.138;2023-05-31T09:47:49;29.42;;;6.22;;
67712;SDS011;67640;55.784;49.138;2023-05-31T09:53:08;25.17;;;5.97;;
67712;SDS011;67640;55.784;49.138;2023-05-31T09:58:28;21.93;;;5.47;;
67712;SDS011;67640;55.784;49.138;2023-05-31T10:03:33;18.15;;;4.40;;
67712;SDS011;67640;55.784;49.138;2023-05-31T10:08:39;15.35;;;4.50;;
67712;SDS011;67640;55.784;49.138;2023-05-31T10:13:59;31.27;;;5.43;;
67712;SDS011;67640;55.784;49.138;2023-05-31T10:30:22;15.07;;;4.23;;
67712;SDS011;67640;55.784;49.138;2023-05-31T10:35:44;21.20;;;4.63;;
67712;SDS011;67640;55.784;49.138;2023-05-31T10:40:51;22.60;;;5.30;;
67712;SDS011;67640;55.784;49.138;2023-05-31T10:57:04;21.97;;;5.67;;
67712;SDS011;67640;55.784;49.138;2023-05-31T11:02:10;17.05;;;5.50;;
67712;SDS011;67640;55.784;49.138;2023-05-31T11:07:29;18.07;;;5.50;;
67712;SDS011;67640;55.784;49.138;2023-05-31T11:12:37;20.53;;;6.00;;
67712;SDS011;67640;55.784;49.138;2023-05-31T11:17:56;18.50;;;7.73;;
67712;SDS011;67640;55.784;49.138;2023-05-31T11:28:26;26.87;;;7.37;;
67712;SDS011;67640;55.784;49.138;2023-05-31T11:33:45;25.40;;;6.83;;
67712;SDS011;67640;55.784;49.138;2023-05-31T11:39:05;19.95;;;6.65;;
67712;SDS011;67640;55.784;49.138;2023-05-31T11:49:45;26.23;;;8.10;;
67712;SDS011;67640;55.784;49.138;2023-05-31T11:54:50;21.25;;;7.10;;
67712;SDS011;67640;55.784;49.138;2023-05-31T12:05:38;24.57;;;8.33;;
67712;SDS011;67640;55.784;49.138;2023-05-31T12:16:37;29.42;;;9.25;;
67712;SDS011;67640;55.784;49.138;2023-05-31T12:21:43;24.40;;;9.00;;
67712;SDS011;67640;55.784;49.138;2023-05-31T12:26:49;46.10;;;11.97;;
67712;SDS011;67640;55.784;49.138;2023-05-31T12:32:10;22.17;;;7.22;;
67712;SDS011;67640;55.784;49.138;2023-05-31T12:37:15;21.30;;;8.07;;
67712;SDS011;67640;55.784;49.138;2023-05-31T12:42:20;24.98;;;7.53;;
67712;SDS011;67640;55.784;49.138;2023-05-31T12:47:41;25.65;;;8.08;;
67712;SDS011;67640;55.784;49.138;2023-05-31T12:53:00;19.60;;;7.63;;
67712;SDS011;67640;55.784;49.138;2023-05-31T12:58:19;20.65;;;8.68;;
67712;SDS011;67640;55.784;49.138;2023-05-31T13:03:25;24.77;;;8.57;;
67712;SDS011;67640;55.784;49.138;2023-05-31T13:08:30;24.87;;;7.35;;
67712;SDS011;67640;55.784;49.138;2023-05-31T13:13:52;21.48;;;6.87;;
67712;SDS011;67640;55.784;49.138;2023-05-31T13:18:57;27.48;;;8.38;;
67712;SDS011;67640;55.784;49.138;2023-05-31T13:24:03;26.00;;;8.50;;
67712;SDS011;67640;55.784;49.138;2023-05-31T13:29:22;22.42;;;8.98;;
67712;SDS011;67640;55.784;49.138;2023-05-31T13:34:41;36.23;;;9.63;;
67712;SDS011;67640;55.784;49.138;2023-05-31T13:40:00;32.23;;;11.78;;
67712;SDS011;67640;55.784;49.138;2023-05-31T13:45:08;30.12;;;10.40;;
67712;SDS011;67640;55.784;49.138;2023-05-31T13:50:14;23.87;;;10.80;;
67712;SDS011;67640;55.784;49.138;2023-05-31T13:55:33;28.07;;;9.85;;
67712;SDS011;67640;55.784;49.138;2023-05-31T14:00:52;26.90;;;8.90;;
67712;SDS011;67640;55.784;49.138;2023-05-31T14:06:11;21.65;;;8.38;;
67712;SDS011;67640;55.784;49.138;2023-05-31T14:11:17;23.30;;;7.92;;
67712;SDS011;67640;55.784;49.138;2023-05-31T14:16:23;20.80;;;8.17;;
67712;SDS011;67640;55.784;49.138;2023-05-31T14:21:28;22.10;;;7.05;;
67712;SDS011;67640;55.784;49.138;2023-05-31T14:26:47;20.85;;;8.00;;
67712;SDS011;67640;55.784;49.138;2023-05-31T14:31:52;25.17;;;8.30;;
67712;SDS011;67640;55.784;49.138;2023-05-31T14:37:11;18.92;;;7.22;;
67712;SDS011;67640;55.784;49.138;2023-05-31T14:42:31;19.75;;;8.15;;
67712;SDS011;67640;55.784;49.138;2023-05-31T14:47:50;24.00;;;7.90;;
67712;SDS011;67640;55.784;49.138;2023-05-31T14:53:09;26.73;;;8.08;;
67712;SDS011;67640;55.784;49.138;2023-05-31T14:58:15;20.63;;;6.97;;
67712;SDS011;67640;55.784;49.138;2023-05-31T15:19:35;21.45;;;7.90;;
67712;SDS011;67640;55.784;49.138;2023-05-31T15:30:02;24.33;;;7.60;;
67712;SDS011;67640;55.784;49.138;2023-05-31T15:35:22;22.07;;;8.20;;
67712;SDS011;67640;55.784;49.138;2023-05-31T15:40:41;26.27;;;9.08;;
67712;SDS011;67640;55.784;49.138;2023-05-31T15:46:02;22.20;;;8.33;;
67712;SDS011;67640;55.784;49.138;2023-05-31T15:51:07;20.80;;;7.25;;
67712;SDS011;67640;55.784;49.138;2023-05-31T15:56:13;22.20;;;8.43;;
67712;SDS011;67640;55.784;49.138;2023-05-31T16:01:32;24.83;;;9.70;;
67712;SDS011;67640;55.784;49.138;2023-05-31T16:06:52;24.40;;;9.30;;
67712;SDS011;67640;55.784;49.138;2023-05-31T16:12:11;25.90;;;10.32;;
67712;SDS011;67640;55.784;49.138;2023-05-31T16:17:17;23.35;;;8.90;;
67712;SDS011;67640;55.784;49.138;2023-05-31T16:22:23;23.12;;;9.40;;
67712;SDS011;67640;55.784;49.138;2023-05-31T16:27:29;24.70;;;9.27;;
67712;SDS011;67640;55.784;49.138;2023-05-31T16:32:48;29.72;;;10.35;;
67712;SDS011;67640;55.784;49.138;2023-05-31T16:38:09;33.50;;;9.50;;
67712;SDS011;67640;55.784;49.138;2023-05-31T16:43:14;25.80;;;8.70;;
67712;SDS011;67640;55.784;49.138;2023-05-31T16:48:33;21.50;;;8.83;;
67712;SDS011;67640;55.784;49.138;2023-05-31T16:53:53;23.32;;;8.95;;
67712;SDS011;67640;55.784;49.138;2023-05-31T16:59:13;24.70;;;8.57;;
67712;SDS011;67640;55.784;49.138;2023-05-31T17:04:32;21.68;;;8.55;;
67712;SDS011;67640;55.784;49.138;2023-05-31T17:09:51;22.87;;;7.90;;
67712;SDS011;67640;55.784;49.138;2023-05-31T17:14:56;20.52;;;7.80;;
67712;SDS011;67640;55.784;49.138;2023-05-31T17:20:15;24.05;;;8.03;;
67712;SDS011;67640;55.784;49.138;2023-05-31T17:25:20;22.00;;;7.37;;
67712;SDS011;67640;55.784;49.138;2023-05-31T17:30:39;15.55;;;6.80;;
67712;SDS011;67640;55.784;49.138;2023-05-31T17:41:48;15.05;;;5.17;;
67712;SDS011;67640;55.784;49.138;2023-05-31T17:46:53;11.90;;;4.77;;
67712;SDS011;67640;55.784;49.138;2023-05-31T17:51:58;13.95;;;5.17;;
67712;SDS011;67640;55.784;49.138;2023-05-31T17:57:04;11.90;;;4.90;;
67712;SDS011;67640;55.784;49.138;2023-05-31T18:02:23;11.10;;;4.97;;
67712;SDS011;67640;55.784;49.138;2023-05-31T18:07:54;10.30;;;4.90;;
67712;SDS011;67640;55.784;49.138;2023-05-31T18:13:00;12.60;;;5.40;;
67712;SDS011;67640;55.784;49.138;2023-05-31T18:18:41;12.00;;;5.40;;
67712;SDS011;67640;55.784;49.138;2023-05-31T18:24:19;10.15;;;5.37;;
67712;SDS011;67640;55.784;49.138;2023-05-31T18:29:25;10.57;;;5.50;;
67712;SDS011;67640;55.784;49.138;2023-05-31T18:34:44;13.83;;;5.55;;
67712;SDS011;67640;55.784;49.138;2023-05-31T18:39:49;8.58;;;5.22;;
67712;SDS011;67640;55.784;49.138;2023-05-31T18:44:55;10.55;;;5.25;;
67712;SDS011;67640;55.784;49.138;2023-05-31T18:50:14;10.00;;;5.20;;
67712;SDS011;67640;55.784;49.138;2023-05-31T18:55:19;9.23;;;5.13;;
67712;SDS011;67640;55.784;49.138;2023-05-31T19:00:38;11.25;;;4.55;;
67712;SDS011;67640;55.784;49.138;2023-05-31T19:05:44;8.78;;;3.80;;
67712;SDS011;67640;55.784;49.138;2023-05-31T19:11:04;6.63;;;3.90;;
67712;SDS011;67640;55.784;49.138;2023-05-31T19:16:09;7.03;;;3.67;;
67712;SDS011;67640;55.784;49.138;2023-05-31T19:21:28;10.13;;;4.10;;
67712;SDS011;67640;55.784;49.138;2023-05-31T19:26:34;5.60;;;3.40;;
67712;SDS011;67640;55.784;49.138;2023-05-31T19:31:53;6.20;;;3.75;;
67712;SDS011;67640;55.784;49.138;2023-05-31T19:37:13;5.90;;;3.30;;
67712;SDS011;67640;55.784;49.138;2023-05-31T19:47:42;6.65;;;3.60;;
67712;SDS011;67640;55.784;49.138;2023-05-31T19:52:48;6.43;;;2.77;;
67712;SDS011;67640;55.784;49.138;2023-05-31T19:58:07;6.25;;;2.55;;
67712;SDS011;67640;55.784;49.138;2023-05-31T20:03:26;5.50;;;2.60;;
67712;SDS011;67640;55.784;49.138;2023-05-31T20:08:45;6.08;;;2.37;;
67712;SDS011;67640;55.784;49.138;2023-05-31T20:13:51;5.05;;;2.60;;
67712;SDS011;67640;55.784;49.138;2023-05-31T20:18:56;6.33;;;2.53;;
67712;SDS011;67640;55.784;49.138;2023-05-31T20:24:02;6.95;;;2.85;;
67712;SDS011;67640;55.784;49.138;2023-05-31T20:29:21;5.90;;;2.60;;
67712;SDS011;67640;55.784;49.138;2023-05-31T20:34:26;5.07;;;2.50;;
67712;SDS011;67640;55.784;49.138;2023-05-31T20:39:46;4.37;;;2.50;;
67712;SDS011;67640;55.784;49.138;2023-05-31T20:44:51;4.62;;;2.40;;
67712;SDS011;67640;55.784;49.138;2023-05-31T20:49:57;4.70;;;2.17;;
67712;SDS011;67640;55.784;49.138;2023-05-31T20:55:16;5.95;;;2.50;;
67712;SDS011;67640;55.784;49.138;2023-05-31T21:00:21;4.58;;;2.27;;
67712;SDS011;67640;55.784;49.138;2023-05-31T21:05:41;5.20;;;2.20;;
67712;SDS011;67640;55.784;49.138;2023-05-31T21:11:17;4.80;;;1.95;;
67712;SDS011;67640;55.784;49.138;2023-05-31T21:16:21;4.40;;;1.80;;
67712;SDS011;67640;55.784;49.138;2023-05-31T21:21:40;3.50;;;1.90;;
67712;SDS011;67640;55.784;49.138;2023-05-31T21:26:59;4.22;;;2.00;;
67712;SDS011;67640;55.784;49.138;2023-05-31T21:32:19;4.30;;;2.10;;
67712;SDS011;67640;55.784;49.138;2023-05-31T21:37:38;3.65;;;1.70;;
67712;SDS011;67640;55.784;49.138;2023-05-31T21:42:44;3.90;;;1.90;;
67712;SDS011;67640;55.784;49.138;2023-05-31T21:48:03;5.85;;;2.10;;
67712;SDS011;67640;55.784;49.138;2023-05-31T21:53:08;4.70;;;1.90;;
67712;SDS011;67640;55.784;49.138;2023-05-31T21:58:41;4.05;;;1.90;;
67712;SDS011;67640;55.784;49.138;2023-05-31T22:03:46;4.40;;;1.72;;
67712;SDS011;67640;55.784;49.138;2023-05-31T22:08:52;3.93;;;1.93;;
67712;SDS011;67640;55.784;49.138;2023-05-31T22:13:57;4.45;;;1.82;;
67712;SDS011;67640;55.784;49.138;2023-05-31T22:19:13;4.97;;;1.75;;
67712;SDS011;67640;55.784;49.138;2023-05-31T22:24:32;4.75;;;1.85;;
67712;SDS011;67640;55.784;49.138;2023-05-31T22:29:51;4.87;;;2.10;;
67712;SDS011;67640;55.784;49.138;2023-05-31T22:34:56;3.67;;;1.70;;
67712;SDS011;67640;55.784;49.138;2023-05-31T22:40:15;4.37;;;1.80;;
67712;SDS011;67640;55.784;49.138;2023-05-31T22:45:21;3.50;;;1.67;;
67712;SDS011;67640;55.784;49.138;2023-05-31T22:50:40;3.97;;;1.67;;
67712;SDS011;67640;55.784;49.138;2023-05-31T22:55:46;3.92;;;1.50;;
67712;SDS011;67640;55.784;49.138;2023-05-31T23:00:52;3.22;;;1.55;;
67712;SDS011;67640;55.784;49.138;2023-05-31T23:06:11;3.73;;;1.43;;
67712;SDS011;67640;55.784;49.138;2023-05-31T23:11:30;3.60;;;1.50;;
67712;SDS011;67640;55.784;49.138;2023-05-31T23:16:49;3.60;;;1.40;;
67712;SDS011;67640;55.784;49.138;2023-05-31T23:21:54;6.12;;;1.80;;
67712;SDS011;67640;55.784;49.138;2023-05-31T23:27:00;4.87;;;1.80;;
67712;SDS011;67640;55.784;49.138;2023-05-31T23:32:05;5.13;;;2.60;;
67712;SDS011;67640;55.784;49.138;2023-05-31T23:37:24;5.05;;;2.47;;
67712;SDS011;67640;55.784;49.138;2023-05-31T23:42:43;5.53;;;2.58;;
67712;SDS011;67640;55.784;49.138;2023-05-31T23:47:48;5.20;;;2.33;;
67712;SDS011;67640;55.784;49.138;2023-05-31T23:52:54;6.87;;;2.40;;
67712;SDS011;67640;55.784;49.138;2023-05-31T23:58:13;5.03;;;2.15;;
